createdAt,value
2022-09-28T00:00:00.356Z,7.12
2022-09-28T00:01:00.495Z,7.14
2022-09-28T00:02:00.793Z,7.17
2022-09-28T00:03:00.928Z,7.19
2022-09-28T00:04:00.952Z,7.17
2022-09-28T00:05:01.107Z,7.17
2022-09-28T00:06:01.261Z,7.18
2022-09-28T00:07:00.386Z,7.19
2022-09-28T00:08:00.568Z,7.22
2022-09-28T00:09:00.689Z,7.25
2022-09-28T00:10:00.841Z,7.26
2022-09-28T00:11:00.991Z,7.27
2022-09-28T00:12:01.136Z,7.27
2022-09-28T00:13:00.304Z,7.27
2022-09-28T00:14:00.441Z,7.27
2022-09-28T00:15:00.584Z,7.27
2022-09-28T00:16:00.784Z,7.29
2022-09-28T00:17:00.899Z,7.3
2022-09-28T00:18:01.063Z,7.3
2022-09-28T00:19:01.183Z,7.3
2022-09-28T00:20:00.347Z,7.3
2022-09-28T00:21:00.496Z,7.3
2022-09-28T00:22:00.656Z,7.3
2022-09-28T00:23:00.817Z,7.3
2022-09-28T00:24:00.949Z,7.31
2022-09-28T00:25:01.103Z,7.33
2022-09-28T00:26:01.245Z,7.34
2022-09-28T00:27:00.394Z,7.33
2022-09-28T00:28:00.558Z,7.37
2022-09-28T00:29:00.711Z,7.38
2022-09-28T00:30:00.841Z,7.38
2022-09-28T00:31:00.986Z,7.38
2022-09-28T00:32:01.226Z,7.39
2022-09-28T00:33:00.282Z,7.4
2022-09-28T00:34:00.451Z,7.4
2022-09-28T00:35:00.591Z,7.38
2022-09-28T00:36:00.729Z,7.35
2022-09-28T00:37:00.891Z,7.37
2022-09-28T00:38:01.031Z,7.37
2022-09-28T00:39:01.194Z,7.37
2022-09-28T00:40:00.323Z,7.38
2022-09-28T00:41:00.537Z,7.39
2022-09-28T00:42:00.630Z,7.4
2022-09-28T00:43:00.790Z,7.41
2022-09-28T00:44:00.949Z,7.42
2022-09-28T00:45:01.084Z,7.43
2022-09-28T00:46:01.311Z,7.44
2022-09-28T00:47:00.371Z,7.43
2022-09-28T00:48:00.519Z,7.44
2022-09-28T00:49:00.693Z,7.45
2022-09-28T00:50:00.829Z,7.46
2022-09-28T00:51:00.981Z,7.45
2022-09-28T00:52:01.135Z,7.45
2022-09-28T00:53:00.270Z,7.45
2022-09-28T00:54:00.423Z,7.45
2022-09-28T00:55:00.553Z,7.45
2022-09-28T00:56:00.716Z,7.47
2022-09-28T00:57:00.852Z,7.48
2022-09-28T00:58:00.998Z,7.47
2022-09-28T00:59:01.165Z,7.47
2022-09-28T01:00:00.280Z,7.46
2022-09-28T01:01:00.544Z,7.46
2022-09-28T01:02:00.621Z,7.48
2022-09-28T01:03:00.723Z,7.53
2022-09-28T01:04:00.901Z,7.53
2022-09-28T01:05:01.018Z,7.53
2022-09-28T01:06:01.164Z,7.49
2022-09-28T01:07:00.308Z,7.48
2022-09-28T01:08:00.453Z,7.48
2022-09-28T01:09:00.621Z,7.53
2022-09-28T01:10:00.770Z,7.5
2022-09-28T01:11:00.908Z,7.48
2022-09-28T01:12:01.067Z,7.48
2022-09-28T01:13:01.221Z,7.49
2022-09-28T01:14:00.383Z,7.53
2022-09-28T01:15:00.530Z,7.53
2022-09-28T01:16:00.742Z,7.49
2022-09-28T01:17:00.810Z,7.5
2022-09-28T01:18:00.952Z,7.53
2022-09-28T01:19:01.115Z,7.54
2022-09-28T01:20:01.265Z,7.54
2022-09-28T01:21:00.389Z,7.55
2022-09-28T01:22:00.545Z,7.53
2022-09-28T01:23:00.699Z,7.49
2022-09-28T01:24:00.855Z,7.5
2022-09-28T01:25:01.034Z,7.53
2022-09-28T01:26:01.164Z,7.5
2022-09-28T01:27:00.315Z,7.48
2022-09-28T01:28:00.453Z,7.48
2022-09-28T01:29:00.596Z,7.48
2022-09-28T01:30:00.733Z,7.47
2022-09-28T01:31:00.884Z,7.46
2022-09-28T01:32:01.106Z,7.45
2022-09-28T01:33:01.192Z,7.45
2022-09-28T01:34:00.317Z,7.47
2022-09-28T01:35:00.466Z,7.48
2022-09-28T01:36:00.603Z,7.47
2022-09-28T01:37:00.748Z,7.46
2022-09-28T01:38:00.920Z,7.45
2022-09-28T01:39:01.041Z,7.45
2022-09-28T01:40:01.196Z,7.47
2022-09-28T01:41:00.384Z,7.48
2022-09-28T01:42:00.489Z,7.5
2022-09-28T01:43:00.678Z,7.5
2022-09-28T01:44:00.796Z,7.48
2022-09-28T01:45:00.939Z,7.47
2022-09-28T01:46:01.121Z,7.45
2022-09-28T01:47:01.236Z,7.44
2022-09-28T01:48:00.409Z,7.43
2022-09-28T01:49:00.535Z,7.42
2022-09-28T01:50:00.693Z,7.4
2022-09-28T01:51:00.833Z,7.37
2022-09-28T01:52:00.983Z,7.34
2022-09-28T01:53:01.160Z,7.32
2022-09-28T01:54:00.276Z,7.3
2022-09-28T01:55:00.433Z,7.27
2022-09-28T01:56:00.589Z,7.25
2022-09-28T01:57:00.743Z,7.25
2022-09-28T01:58:00.918Z,7.24
2022-09-28T01:59:01.055Z,7.24
2022-09-28T02:00:01.186Z,7.23
2022-09-28T02:01:00.380Z,7.2
2022-09-28T02:02:00.542Z,7.19
2022-09-28T02:03:00.660Z,7.17
2022-09-28T02:04:00.781Z,7.13
2022-09-28T02:05:00.921Z,7.12
2022-09-28T02:06:01.066Z,7.09
2022-09-28T02:07:01.226Z,7.09
2022-09-28T02:08:00.389Z,7.1
2022-09-28T02:09:00.516Z,7.11
2022-09-28T02:10:00.663Z,7.1
2022-09-28T02:11:00.811Z,7.1
2022-09-28T02:12:00.956Z,7.09
2022-09-28T02:13:01.132Z,7.09
2022-09-28T02:14:01.258Z,7.1
2022-09-28T02:15:00.401Z,7.1
2022-09-28T02:16:00.598Z,7.09
2022-09-28T02:17:00.688Z,7.09
2022-09-28T02:18:00.868Z,7.1
2022-09-28T02:19:00.988Z,7.08
2022-09-28T02:20:01.129Z,7.07
2022-09-28T02:21:00.281Z,7.07
2022-09-28T02:22:00.415Z,7.04
2022-09-28T02:23:00.589Z,7.01
2022-09-28T02:24:00.725Z,7
2022-09-28T02:25:00.878Z,6.99
2022-09-28T02:26:01.032Z,6.98
2022-09-28T02:27:01.167Z,6.99
2022-09-28T02:28:00.341Z,6.99
2022-09-28T02:29:00.457Z,6.98
2022-09-28T02:30:00.604Z,6.96
2022-09-28T02:31:00.747Z,6.94
2022-09-28T02:32:00.901Z,6.94
2022-09-28T02:33:01.066Z,6.94
2022-09-28T02:34:01.206Z,6.9
2022-09-28T02:35:00.345Z,6.87
2022-09-28T02:36:00.488Z,6.85
2022-09-28T02:37:00.634Z,6.83
2022-09-28T02:38:00.791Z,6.81
2022-09-28T02:39:00.958Z,6.8
2022-09-28T02:40:01.086Z,6.79
2022-09-28T02:41:01.338Z,6.78
2022-09-28T02:42:00.371Z,6.78
2022-09-28T02:43:00.518Z,6.8
2022-09-28T02:44:00.699Z,6.82
2022-09-28T02:45:00.852Z,6.83
2022-09-28T02:46:01.041Z,6.84
2022-09-28T02:47:01.122Z,6.84
2022-09-28T02:48:00.263Z,6.85
2022-09-28T02:49:17.301Z,6.84
2022-09-28T02:50:00.590Z,6.84
2022-09-28T02:51:00.744Z,6.84
2022-09-28T02:52:00.880Z,6.81
2022-09-28T02:53:01.022Z,6.78
2022-09-28T02:54:01.154Z,6.75
2022-09-28T02:55:00.332Z,6.74
2022-09-28T02:56:00.455Z,6.73
2022-09-28T02:57:00.594Z,6.73
2022-09-28T02:58:00.739Z,6.75
2022-09-28T02:59:00.894Z,6.75
2022-09-28T03:00:01.053Z,6.75
2022-09-28T03:01:01.239Z,6.76
2022-09-28T03:02:00.409Z,6.75
2022-09-28T03:03:00.470Z,6.74
2022-09-28T03:04:00.624Z,6.74
2022-09-28T03:05:00.782Z,6.73
2022-09-28T03:06:00.910Z,6.73
2022-09-28T03:07:01.067Z,6.73
2022-09-28T03:08:01.220Z,6.71
2022-09-28T03:09:00.361Z,6.7
2022-09-28T03:10:00.521Z,6.69
2022-09-28T03:11:00.660Z,6.69
2022-09-28T03:12:00.800Z,6.69
2022-09-28T03:13:00.948Z,6.7
2022-09-28T03:14:01.093Z,6.71
2022-09-28T03:15:01.262Z,6.69
2022-09-28T03:16:00.427Z,6.69
2022-09-28T03:17:00.528Z,6.66
2022-09-28T03:18:00.663Z,6.66
2022-09-28T03:19:00.819Z,6.66
2022-09-28T03:20:00.984Z,6.67
2022-09-28T03:21:01.125Z,6.66
2022-09-28T03:22:00.273Z,6.63
2022-09-28T03:23:23.362Z,6.61
2022-09-28T03:24:00.570Z,6.61
2022-09-28T03:25:00.714Z,6.6
2022-09-28T03:26:00.878Z,6.58
2022-09-28T03:27:01.054Z,6.57
2022-09-28T03:28:01.195Z,6.56
2022-09-28T03:29:00.320Z,6.57
2022-09-28T03:30:00.465Z,6.6
2022-09-28T03:31:00.619Z,6.63
2022-09-28T03:32:00.769Z,6.64
2022-09-28T03:33:00.909Z,6.64
2022-09-28T03:34:01.067Z,6.65
2022-09-28T03:35:01.179Z,6.66
2022-09-28T03:36:00.329Z,6.68
2022-09-28T03:37:00.482Z,6.67
2022-09-28T03:38:00.635Z,6.67
2022-09-28T03:39:00.774Z,6.68
2022-09-28T03:40:00.910Z,6.68
2022-09-28T03:41:01.138Z,6.68
2022-09-28T03:42:01.208Z,6.68
2022-09-28T03:43:00.376Z,6.67
2022-09-28T03:44:00.496Z,6.66
2022-09-28T03:45:00.650Z,6.65
2022-09-28T03:46:00.903Z,6.66
2022-09-28T03:47:00.952Z,6.67
2022-09-28T03:48:01.108Z,6.68
2022-09-28T03:49:01.243Z,6.68
2022-09-28T03:50:00.393Z,6.68
2022-09-28T03:51:00.533Z,6.69
2022-09-28T03:52:00.691Z,6.69
2022-09-28T03:53:00.852Z,6.7
2022-09-28T03:54:00.974Z,6.71
2022-09-28T03:55:01.129Z,6.72
2022-09-28T03:56:00.272Z,6.73
2022-09-28T03:57:00.407Z,6.72
2022-09-28T03:58:00.577Z,6.72
2022-09-28T03:59:00.723Z,6.71
2022-09-28T04:00:00.883Z,6.69
2022-09-28T04:01:01.090Z,6.66
2022-09-28T04:02:01.233Z,6.65
2022-09-28T04:03:00.301Z,6.67
2022-09-28T04:04:00.467Z,6.66
2022-09-28T04:05:00.615Z,6.66
2022-09-28T04:06:00.764Z,6.64
2022-09-28T04:07:00.899Z,6.64
2022-09-28T04:08:01.038Z,6.64
2022-09-28T04:09:01.190Z,6.64
2022-09-28T04:10:00.363Z,6.65
2022-09-28T04:11:00.494Z,6.64
2022-09-28T04:12:04.215Z,6.63
2022-09-28T04:13:00.773Z,6.64
2022-09-28T04:14:00.931Z,6.64
2022-09-28T04:15:01.081Z,6.64
2022-09-28T04:16:01.271Z,6.63
2022-09-28T04:17:00.358Z,6.6
2022-09-28T04:18:00.509Z,6.59
2022-09-28T04:19:00.675Z,6.61
2022-09-28T04:20:00.807Z,6.63
2022-09-28T04:21:00.961Z,6.64
2022-09-28T04:22:01.096Z,6.63
2022-09-28T04:23:01.242Z,6.64
2022-09-28T04:24:00.406Z,6.65
2022-09-28T04:25:00.543Z,6.64
2022-09-28T04:26:00.703Z,6.64
2022-09-28T04:27:00.859Z,6.63
2022-09-28T04:28:01.013Z,6.61
2022-09-28T04:29:06.178Z,6.63
2022-09-28T04:30:00.282Z,6.63
2022-09-28T04:31:00.441Z,6.61
2022-09-28T04:32:00.639Z,6.63
2022-09-28T04:33:00.734Z,6.64
2022-09-28T04:34:00.899Z,6.64
2022-09-28T04:35:01.033Z,6.65
2022-09-28T04:36:01.184Z,6.66
2022-09-28T04:37:00.328Z,6.68
2022-09-28T04:38:00.483Z,6.69
2022-09-28T04:39:00.640Z,6.7
2022-09-28T04:40:00.774Z,6.7
2022-09-28T04:41:01.015Z,6.71
2022-09-28T04:42:01.075Z,6.72
2022-09-28T04:43:01.205Z,6.72
2022-09-28T04:44:00.369Z,6.72
2022-09-28T04:45:00.531Z,6.73
2022-09-28T04:46:00.701Z,6.72
2022-09-28T04:47:05.012Z,6.73
2022-09-28T04:48:00.959Z,6.72
2022-09-28T04:49:01.117Z,6.73
2022-09-28T04:50:00.273Z,6.73
2022-09-28T04:51:00.407Z,6.74
2022-09-28T04:52:00.547Z,6.74
2022-09-28T04:53:00.690Z,6.73
2022-09-28T04:54:00.848Z,6.73
2022-09-28T04:55:01.025Z,6.7
2022-09-28T04:56:01.152Z,6.7
2022-09-28T04:57:00.298Z,6.67
2022-09-28T04:58:00.439Z,6.66
2022-09-28T04:59:00.602Z,6.64
2022-09-28T05:00:00.750Z,6.64
2022-09-28T05:01:00.980Z,6.65
2022-09-28T05:02:01.147Z,6.65
2022-09-28T05:03:01.198Z,6.64
2022-09-28T05:04:00.356Z,6.64
2022-09-28T05:05:00.497Z,6.65
2022-09-28T05:06:00.696Z,6.66
2022-09-28T05:07:00.790Z,6.66
2022-09-28T05:08:00.936Z,6.66
2022-09-28T05:09:01.087Z,6.66
2022-09-28T05:10:01.231Z,6.67
2022-09-28T05:11:00.410Z,6.7
2022-09-28T05:12:00.529Z,6.71
2022-09-28T05:13:00.682Z,6.7
2022-09-28T05:14:00.839Z,6.7
2022-09-28T05:15:00.994Z,6.68
2022-09-28T05:16:05.185Z,6.67
2022-09-28T05:17:00.408Z,6.67
2022-09-28T05:18:00.412Z,6.69
2022-09-28T05:19:00.572Z,6.7
2022-09-28T05:20:00.737Z,6.72
2022-09-28T05:21:00.883Z,6.73
2022-09-28T05:22:01.034Z,6.73
2022-09-28T05:23:01.166Z,6.73
2022-09-28T05:24:00.307Z,6.73
2022-09-28T05:25:00.453Z,6.73
2022-09-28T05:26:00.606Z,6.73
2022-09-28T05:27:00.773Z,6.75
2022-09-28T05:28:00.898Z,6.75
2022-09-28T05:29:01.037Z,6.74
2022-09-28T05:30:01.194Z,6.74
2022-09-28T05:31:00.344Z,6.75
2022-09-28T05:32:00.544Z,6.76
2022-09-28T05:33:00.663Z,6.78
2022-09-28T05:34:00.799Z,6.79
2022-09-28T05:35:00.948Z,6.79
2022-09-28T05:36:01.805Z,6.8
2022-09-28T05:37:01.247Z,6.81
2022-09-28T05:38:00.413Z,6.83
2022-09-28T05:39:00.545Z,6.85
2022-09-28T05:40:00.686Z,6.88
2022-09-28T05:41:05.738Z,6.9
2022-09-28T05:42:00.997Z,6.91
2022-09-28T05:43:01.146Z,6.94
2022-09-28T05:44:00.282Z,6.95
2022-09-28T05:45:00.437Z,6.96
2022-09-28T05:46:00.717Z,6.97
2022-09-28T05:47:00.764Z,6.98
2022-09-28T05:48:00.903Z,6.99
2022-09-28T05:49:01.067Z,7.01
2022-09-28T05:50:01.186Z,7.03
2022-09-28T05:51:00.330Z,7.04
2022-09-28T05:52:00.504Z,7.04
2022-09-28T05:53:00.626Z,7.05
2022-09-28T05:54:05.453Z,7.07
2022-09-28T05:55:00.920Z,7.07
2022-09-28T05:56:01.063Z,7.09
2022-09-28T05:57:01.208Z,7.08
2022-09-28T05:58:00.356Z,7.09
2022-09-28T05:59:00.522Z,7.09
2022-09-28T06:00:00.679Z,7.09
2022-09-28T06:01:00.856Z,7.1
2022-09-28T06:02:00.996Z,7.12
2022-09-28T06:03:03.408Z,7.12
2022-09-28T06:04:01.253Z,7.13
2022-09-28T06:05:00.396Z,7.15
2022-09-28T06:06:00.538Z,7.16
2022-09-28T06:07:00.686Z,7.17
2022-09-28T06:08:00.832Z,7.17
2022-09-28T06:09:01.004Z,7.2
2022-09-28T06:10:01.123Z,7.23
2022-09-28T06:11:00.271Z,7.24
2022-09-28T06:12:00.416Z,7.26
2022-09-28T06:13:00.586Z,7.26
2022-09-28T06:14:00.712Z,7.27
2022-09-28T06:15:00.861Z,7.27
2022-09-28T06:16:01.015Z,7.28
2022-09-28T06:17:01.220Z,7.28
2022-09-28T06:18:00.321Z,7.29
2022-09-28T06:19:00.452Z,7.29
2022-09-28T06:20:00.588Z,7.3
2022-09-28T06:21:00.751Z,7.3
2022-09-28T06:22:00.906Z,7.31
2022-09-28T06:23:01.062Z,7.3
2022-09-28T06:24:01.219Z,7.29
2022-09-28T06:25:00.352Z,7.29
2022-09-28T06:26:00.493Z,7.29
2022-09-28T06:27:00.653Z,7.28
2022-09-28T06:28:00.815Z,7.27
2022-09-28T06:29:00.951Z,7.26
2022-09-28T06:30:01.092Z,7.25
2022-09-28T06:31:01.301Z,7.25
2022-09-28T06:32:00.405Z,7.24
2022-09-28T06:33:00.577Z,7.24
2022-09-28T06:34:00.673Z,7.23
2022-09-28T06:35:00.824Z,7.2
2022-09-28T06:36:00.974Z,7.2
2022-09-28T06:37:01.117Z,7.2
2022-09-28T06:38:00.299Z,7.22
2022-09-28T06:39:00.431Z,7.22
2022-09-28T06:40:00.553Z,7.2
2022-09-28T06:41:00.775Z,7.19
2022-09-28T06:42:00.845Z,7.18
2022-09-28T06:43:01.001Z,7.18
2022-09-28T06:44:01.164Z,7.18
2022-09-28T06:45:00.290Z,7.17
2022-09-28T06:46:00.539Z,7.16
2022-09-28T06:47:00.596Z,7.15
2022-09-28T06:48:00.735Z,7.14
2022-09-28T06:49:00.900Z,7.14
2022-09-28T06:50:01.023Z,7.15
2022-09-28T06:51:01.166Z,7.14
2022-09-28T06:52:00.312Z,7.12
2022-09-28T06:53:00.467Z,7.13
2022-09-28T06:54:00.641Z,7.14
2022-09-28T06:55:00.786Z,7.14
2022-09-28T06:56:00.937Z,7.1
2022-09-28T06:57:01.082Z,7.09
2022-09-28T06:58:01.228Z,7.09
2022-09-28T06:59:00.397Z,7.1
2022-09-28T07:00:00.523Z,7.09
2022-09-28T07:01:00.757Z,7.07
2022-09-28T07:02:00.898Z,7.05
2022-09-28T07:03:00.951Z,7.07
2022-09-28T07:04:01.136Z,7.09
2022-09-28T07:05:01.254Z,7.09
2022-09-28T07:06:00.391Z,7.09
2022-09-28T07:07:00.551Z,7.12
2022-09-28T07:08:00.694Z,7.1
2022-09-28T07:09:24.146Z,7.08
2022-09-28T07:10:00.986Z,7.08
2022-09-28T07:11:01.128Z,7.05
2022-09-28T07:12:00.272Z,7.08
2022-09-28T07:13:00.387Z,7.09
2022-09-28T07:14:00.562Z,7.11
2022-09-28T07:15:00.697Z,7.14
2022-09-28T07:16:00.844Z,7.18
2022-09-28T07:17:13.091Z,7.17
2022-09-28T07:18:03.823Z,7.19
2022-09-28T07:19:00.304Z,7.23
2022-09-28T07:20:10.518Z,7.24
2022-09-28T07:21:00.570Z,7.25
2022-09-28T07:22:04.412Z,7.28
2022-09-28T07:23:08.011Z,7.29
2022-09-28T07:24:01.030Z,7.29
2022-09-28T07:25:01.183Z,7.3
2022-09-28T07:26:00.305Z,7.32
2022-09-28T07:27:00.451Z,7.34
2022-09-28T07:28:00.597Z,7.38
2022-09-28T07:29:00.748Z,7.38
2022-09-28T07:30:00.920Z,7.38
2022-09-28T07:31:01.137Z,7.4
2022-09-28T07:32:01.185Z,7.41
2022-09-28T07:33:00.362Z,7.42
2022-09-28T07:34:00.481Z,7.4
2022-09-28T07:35:00.657Z,7.39
2022-09-28T07:36:00.790Z,7.42
2022-09-28T07:37:00.931Z,7.42
2022-09-28T07:38:01.089Z,7.4
2022-09-28T07:39:01.226Z,7.41
2022-09-28T07:40:00.386Z,7.46
2022-09-28T07:41:00.561Z,7.5
2022-09-28T07:42:03.055Z,7.54
2022-09-28T07:43:00.815Z,7.55
2022-09-28T07:44:00.956Z,7.57
2022-09-28T07:45:01.132Z,7.59
2022-09-28T07:47:00.362Z,7.56
2022-09-28T07:48:00.603Z,7.56
2022-09-28T07:49:00.660Z,7.55
2022-09-28T07:50:00.820Z,7.58
2022-09-28T07:51:00.945Z,7.59
2022-09-28T07:52:01.090Z,7.59
2022-09-28T07:53:01.229Z,7.6
2022-09-28T07:54:00.399Z,7.64
2022-09-28T07:55:06.010Z,7.69
2022-09-28T07:56:00.669Z,7.71
2022-09-28T07:57:00.833Z,7.75
2022-09-28T07:58:00.979Z,7.77
2022-09-28T07:59:01.148Z,7.78
2022-09-28T08:00:00.276Z,7.82
2022-09-28T08:01:00.479Z,7.88
2022-09-28T08:02:00.611Z,7.96
2022-09-28T08:03:00.705Z,7.99
2022-09-28T08:04:00.867Z,8.01
2022-09-28T08:05:01.020Z,8.05
2022-09-28T08:06:01.156Z,8.11
2022-09-28T08:07:00.305Z,8.14
2022-09-28T08:08:00.441Z,8.16
2022-09-28T08:09:00.608Z,8.18
2022-09-28T08:10:00.769Z,8.18
2022-09-28T08:11:00.935Z,8.21
2022-09-28T08:12:01.044Z,8.21
2022-09-28T08:13:02.818Z,8.23
2022-09-28T08:14:00.331Z,8.23
2022-09-28T08:15:00.511Z,8.28
2022-09-28T08:16:00.640Z,8.28
2022-09-28T08:17:00.788Z,8.31
2022-09-28T08:18:02.847Z,8.31
2022-09-28T08:19:01.085Z,8.29
2022-09-28T08:20:01.259Z,8.34
2022-09-28T08:21:00.373Z,8.35
2022-09-28T08:22:00.532Z,8.36
2022-09-28T08:23:00.687Z,8.37
2022-09-28T08:24:00.858Z,8.39
2022-09-28T08:25:01.005Z,8.35
2022-09-28T08:26:01.127Z,8.33
2022-09-28T08:27:00.267Z,8.32
2022-09-28T08:28:00.412Z,8.32
2022-09-28T08:29:00.566Z,8.3
2022-09-28T08:30:00.736Z,8.29
2022-09-28T08:31:00.969Z,8.26
2022-09-28T08:32:01.873Z,8.23
2022-09-28T08:33:01.156Z,8.22
2022-09-28T08:34:00.302Z,8.22
2022-09-28T08:35:00.474Z,8.21
2022-09-28T08:36:00.596Z,8.2
2022-09-28T08:37:00.742Z,8.19
2022-09-28T08:38:00.908Z,8.18
2022-09-28T08:39:01.052Z,8.16
2022-09-28T08:40:01.227Z,8.17
2022-09-28T08:41:00.396Z,8.16
2022-09-28T08:42:00.499Z,8.14
2022-09-28T08:43:00.648Z,8.12
2022-09-28T08:44:00.791Z,8.12
2022-09-28T08:45:00.954Z,8.12
2022-09-28T08:46:01.162Z,8.11
2022-09-28T08:47:01.233Z,8.09
2022-09-28T08:48:00.386Z,8.09
2022-09-28T08:49:23.863Z,8.11
2022-09-28T08:50:00.706Z,8.11
2022-09-28T08:51:00.827Z,8.12
2022-09-28T08:52:00.985Z,8.14
2022-09-28T08:53:01.140Z,8.16
2022-09-28T08:54:00.276Z,8.17
2022-09-28T08:55:00.441Z,8.19
2022-09-28T08:56:00.607Z,8.22
2022-09-28T08:57:00.726Z,8.24
2022-09-28T08:58:00.862Z,8.29
2022-09-28T08:59:01.014Z,8.32
2022-09-28T09:00:01.169Z,8.33
2022-09-28T09:01:00.381Z,8.33
2022-09-28T09:02:00.521Z,8.32
2022-09-28T09:03:00.661Z,8.33
2022-09-28T09:04:00.740Z,8.33
2022-09-28T09:05:00.901Z,8.34
2022-09-28T09:06:01.052Z,8.36
2022-09-28T09:07:01.181Z,8.36
2022-09-28T09:08:00.344Z,8.39
2022-09-28T09:09:00.495Z,8.41
2022-09-28T09:10:00.643Z,8.39
2022-09-28T09:11:00.818Z,8.41
2022-09-28T09:12:01.000Z,8.43
2022-09-28T09:13:01.125Z,8.44
2022-09-28T09:14:01.236Z,8.45
2022-09-28T09:15:00.383Z,8.45
2022-09-28T09:16:00.556Z,8.46
2022-09-28T09:17:01.123Z,8.45
2022-09-28T09:18:00.834Z,8.44
2022-09-28T09:19:01.003Z,8.45
2022-09-28T09:20:01.137Z,8.45
2022-09-28T09:21:00.318Z,8.46
2022-09-28T09:22:00.443Z,8.49
2022-09-28T09:23:00.596Z,8.49
2022-09-28T09:24:00.738Z,8.48
2022-09-28T09:25:00.897Z,8.47
2022-09-28T09:26:01.053Z,8.45
2022-09-28T09:27:01.205Z,8.43
2022-09-28T09:28:00.330Z,8.44
2022-09-28T09:29:00.465Z,8.44
2022-09-28T09:30:00.613Z,8.43
2022-09-28T09:31:00.852Z,8.42
2022-09-28T09:32:00.921Z,8.39
2022-09-28T09:33:01.064Z,8.35
2022-09-28T09:34:01.217Z,8.34
2022-09-28T09:35:00.322Z,8.35
2022-09-28T09:36:00.478Z,8.39
2022-09-28T09:37:00.643Z,8.41
2022-09-28T09:38:00.811Z,8.43
2022-09-28T09:39:00.924Z,8.45
2022-09-28T09:40:01.083Z,8.47
2022-09-28T09:41:01.352Z,8.5
2022-09-28T09:42:00.378Z,8.53
2022-09-28T09:43:00.553Z,8.59
2022-09-28T09:44:00.672Z,8.65
2022-09-28T09:45:00.835Z,8.71
2022-09-28T09:46:01.023Z,8.77
2022-09-28T09:47:01.127Z,8.79
2022-09-28T09:48:00.285Z,8.8
2022-09-28T09:49:00.426Z,8.82
2022-09-28T09:50:04.077Z,8.87
2022-09-28T09:51:00.726Z,8.87
2022-09-28T09:52:00.870Z,8.81
2022-09-28T09:53:01.032Z,8.78
2022-09-28T09:54:01.175Z,8.74
2022-09-28T09:55:00.323Z,8.71
2022-09-28T09:56:00.468Z,8.68
2022-09-28T09:57:00.629Z,8.7
2022-09-28T09:58:00.788Z,8.74
2022-09-28T09:59:00.908Z,8.82
2022-09-28T10:00:01.054Z,8.89
2022-09-28T10:01:01.290Z,8.94
2022-09-28T10:02:00.408Z,8.94
2022-09-28T10:03:00.634Z,8.94
2022-09-28T10:04:00.647Z,8.88
2022-09-28T10:05:00.803Z,8.85
2022-09-28T10:06:00.946Z,8.83
2022-09-28T10:07:01.102Z,8.81
2022-09-28T10:08:01.267Z,8.81
2022-09-28T10:09:00.410Z,8.77
2022-09-28T10:10:00.552Z,8.8
2022-09-28T10:11:00.705Z,8.81
2022-09-28T10:12:00.860Z,8.9
2022-09-28T10:13:01.000Z,8.94
2022-09-28T10:14:01.170Z,8.94
2022-09-28T10:15:00.288Z,8.95
2022-09-28T10:16:00.436Z,9
2022-09-28T10:17:00.732Z,9.02
2022-09-28T10:18:00.728Z,9.04
2022-09-28T10:19:00.900Z,9.07
2022-09-28T10:20:01.125Z,9.15
2022-09-28T10:21:01.181Z,9.18
2022-09-28T10:22:00.317Z,9.16
2022-09-28T10:23:00.489Z,9.16
2022-09-28T10:24:00.606Z,9.18
2022-09-28T10:25:00.775Z,9.19
2022-09-28T10:26:00.910Z,9.24
2022-09-28T10:27:01.088Z,9.3
2022-09-28T10:28:01.199Z,9.3
2022-09-28T10:29:00.333Z,9.26
2022-09-28T10:30:00.500Z,9.21
2022-09-28T10:31:00.762Z,9.2
2022-09-28T10:32:00.776Z,9.18
2022-09-28T10:33:00.933Z,9.14
2022-09-28T10:34:01.128Z,9.14
2022-09-28T10:35:01.263Z,9.12
2022-09-28T10:36:00.381Z,9.12
2022-09-28T10:37:00.537Z,9.12
2022-09-28T10:38:00.692Z,9.12
2022-09-28T10:39:00.864Z,9.14
2022-09-28T10:40:00.986Z,9.14
2022-09-28T10:41:01.282Z,9.1
2022-09-28T10:42:00.310Z,9.12
2022-09-28T10:43:00.442Z,9.18
2022-09-28T10:44:00.648Z,9.21
2022-09-28T10:45:00.732Z,9.23
2022-09-28T10:46:00.976Z,9.32
2022-09-28T10:47:01.032Z,9.34
2022-09-28T10:48:01.174Z,9.35
2022-09-28T10:49:00.328Z,9.3
2022-09-28T10:50:00.452Z,9.21
2022-09-28T10:51:00.602Z,9.17
2022-09-28T10:52:00.757Z,9.19
2022-09-28T10:53:00.901Z,9.19
2022-09-28T10:54:01.074Z,9.22
2022-09-28T10:55:01.224Z,9.3
2022-09-28T10:56:00.348Z,9.31
2022-09-28T10:57:00.490Z,9.31
2022-09-28T10:58:00.623Z,9.23
2022-09-28T10:59:00.789Z,9.15
2022-09-28T11:00:00.893Z,9.15
2022-09-28T11:01:01.092Z,9.2
2022-09-28T11:02:01.279Z,9.29
2022-09-28T11:03:00.420Z,9.32
2022-09-28T11:04:00.475Z,9.36
2022-09-28T11:05:00.634Z,9.4
2022-09-28T11:06:00.771Z,9.41
2022-09-28T11:07:01.015Z,9.38
2022-09-28T11:08:01.065Z,9.36
2022-09-28T11:09:01.206Z,9.38
2022-09-28T11:10:00.367Z,9.4
2022-09-28T11:11:00.514Z,9.4
2022-09-28T11:12:00.650Z,9.4
2022-09-28T11:13:00.792Z,9.42
2022-09-28T11:14:00.953Z,9.44
2022-09-28T11:15:01.125Z,9.46
2022-09-28T11:16:01.236Z,9.49
2022-09-28T11:17:00.443Z,9.51
2022-09-28T11:18:00.535Z,9.55
2022-09-28T11:19:00.680Z,9.56
2022-09-28T11:20:00.844Z,9.55
2022-09-28T11:21:01.002Z,9.51
2022-09-28T11:22:01.125Z,9.49
2022-09-28T11:23:00.275Z,9.48
2022-09-28T11:24:00.417Z,9.45
2022-09-28T11:25:00.569Z,9.45
2022-09-28T11:26:00.740Z,9.44
2022-09-28T11:27:00.881Z,9.45
2022-09-28T11:28:01.027Z,9.42
2022-09-28T11:29:01.184Z,9.45
2022-09-28T11:30:00.299Z,9.44
2022-09-28T11:31:00.537Z,9.44
2022-09-28T11:32:00.605Z,9.42
2022-09-28T11:33:00.752Z,9.44
2022-09-28T11:34:00.896Z,9.46
2022-09-28T11:35:01.048Z,9.5
2022-09-28T11:36:01.216Z,9.56
2022-09-28T11:37:01.883Z,9.61
2022-09-28T11:38:00.486Z,9.64
2022-09-28T11:39:00.638Z,9.65
2022-09-28T11:40:00.787Z,9.66
2022-09-28T11:41:01.022Z,9.69
2022-09-28T11:42:01.120Z,9.69
2022-09-28T11:43:01.330Z,9.67
2022-09-28T11:44:00.394Z,9.67
2022-09-28T11:45:00.545Z,9.68
2022-09-28T11:46:00.760Z,9.67
2022-09-28T11:47:00.858Z,9.66
2022-09-28T11:48:00.994Z,9.69
2022-09-28T11:49:01.133Z,9.74
2022-09-28T11:50:00.285Z,9.74
2022-09-28T11:51:00.427Z,9.7
2022-09-28T11:52:00.591Z,9.68
2022-09-28T11:53:00.714Z,9.64
2022-09-28T11:54:00.868Z,9.64
2022-09-28T11:55:01.022Z,9.64
2022-09-28T11:56:03.303Z,9.69
2022-09-28T11:57:00.337Z,9.76
2022-09-28T11:58:00.444Z,9.81
2022-09-28T11:59:00.619Z,9.83
2022-09-28T12:00:00.753Z,9.84
2022-09-28T12:01:00.898Z,9.85
2022-09-28T12:02:01.166Z,9.83
2022-09-28T12:03:01.362Z,9.77
2022-09-28T12:04:00.343Z,9.71
2022-09-28T12:05:00.491Z,9.66
2022-09-28T12:06:00.644Z,9.68
2022-09-28T12:07:00.818Z,9.7
2022-09-28T12:08:00.961Z,9.72
2022-09-28T12:09:01.108Z,9.75
2022-09-28T12:10:01.248Z,9.77
2022-09-28T12:11:00.394Z,9.76
2022-09-28T12:12:00.553Z,9.8
2022-09-28T12:13:00.673Z,9.84
2022-09-28T12:14:00.824Z,9.88
2022-09-28T12:15:00.968Z,9.9
2022-09-28T12:16:27.565Z,9.93
2022-09-28T12:17:06.813Z,9.96
2022-09-28T12:18:00.469Z,9.95
2022-09-28T12:20:00.705Z,9.94
2022-09-28T12:21:05.018Z,9.95
2022-09-28T12:22:01.015Z,9.96
2022-09-28T12:23:01.183Z,9.98
2022-09-28T12:24:00.318Z,9.97
2022-09-28T12:25:00.459Z,10.01
2022-09-28T12:26:00.604Z,10.13
2022-09-28T12:27:00.762Z,10.22
2022-09-28T12:28:00.924Z,10.23
2022-09-28T12:29:01.079Z,10.23
2022-09-28T12:30:01.193Z,10.25
2022-09-28T12:31:00.372Z,10.28
2022-09-28T12:32:00.497Z,10.37
2022-09-28T12:33:00.641Z,10.44
2022-09-28T12:34:00.817Z,10.54
2022-09-28T12:35:00.947Z,10.65
2022-09-28T12:36:01.093Z,10.7
2022-09-28T12:37:01.241Z,10.74
2022-09-28T12:38:00.372Z,10.78
2022-09-28T12:39:18.179Z,10.79
2022-09-28T12:40:00.965Z,10.78
2022-09-28T12:41:00.875Z,10.78
2022-09-28T12:42:00.964Z,10.74
2022-09-28T12:43:01.110Z,10.69
2022-09-28T12:44:01.279Z,10.67
2022-09-28T12:45:00.401Z,10.6
2022-09-28T12:46:11.440Z,10.55
2022-09-28T12:47:00.874Z,10.52
2022-09-28T12:48:00.857Z,10.48
2022-09-28T12:50:37.697Z,10.42
2022-09-28T12:51:00.568Z,10.38
2022-09-28T12:52:00.421Z,10.38
2022-09-28T12:53:03.011Z,10.37
2022-09-28T12:54:00.753Z,10.36
2022-09-28T12:55:00.958Z,10.33
2022-09-28T12:56:01.040Z,10.28
2022-09-28T12:57:01.182Z,10.33
2022-09-28T12:58:00.326Z,10.34
2022-09-28T12:59:00.497Z,10.38
2022-09-28T13:00:00.683Z,10.41
2022-09-28T13:01:00.761Z,10.48
2022-09-28T13:02:00.940Z,10.52
2022-09-28T13:03:01.161Z,10.55
2022-09-28T13:04:01.229Z,10.6
2022-09-28T13:05:00.356Z,10.63
2022-09-28T13:06:00.495Z,10.64
2022-09-28T13:07:00.642Z,10.64
2022-09-28T13:08:00.791Z,10.64
2022-09-28T13:09:00.963Z,10.63
2022-09-28T13:10:01.162Z,10.59
2022-09-28T13:11:04.284Z,10.55
2022-09-28T13:12:00.393Z,10.5
2022-09-28T13:13:00.546Z,10.46
2022-09-28T13:14:00.724Z,10.42
2022-09-28T13:15:00.854Z,10.39
2022-09-28T13:16:01.079Z,10.37
2022-09-28T13:17:01.154Z,10.35
2022-09-28T13:18:00.298Z,10.35
2022-09-28T13:19:00.453Z,10.34
2022-09-28T13:20:00.629Z,10.34
2022-09-28T13:21:00.738Z,10.37
2022-09-28T13:22:00.875Z,10.35